sensor_id;sensor_type;location;lat;lon;timestamp;P1;durP1;ratioP1;P2;durP2;ratioP2
42586;SDS011;28216;53.362;-6.288;2023-03-01T00:00:33;5.22;;;3.95;;
42586;SDS011;28216;53.362;-6.288;2023-03-01T00:03:17;7.25;;;4.10;;
42586;SDS011;28216;53.362;-6.288;2023-03-01T00:05:55;6.32;;;3.92;;
42586;SDS011;28216;53.362;-6.288;2023-03-01T00:08:36;5.97;;;3.90;;
42586;SDS011;28216;53.362;-6.288;2023-03-01T00:11:07;4.22;;;3.75;;
42586;SDS011;28216;53.362;-6.288;2023-03-01T00:16:51;6.57;;;3.80;;
42586;SDS011;28216;53.362;-6.288;2023-03-01T00:19:17;5.68;;;3.70;;
42586;SDS011;28216;53.362;-6.288;2023-03-01T00:21:50;4.63;;;3.67;;
42586;SDS011;28216;53.362;-6.288;2023-03-01T00:24:25;4.72;;;3.50;;
42586;SDS011;28216;53.362;-6.288;2023-03-01T00:27:07;7.57;;;2.90;;
42586;SDS011;28216;53.362;-6.288;2023-03-01T00:30:10;5.35;;;3.00;;
42586;SDS011;28216;53.362;-6.288;2023-03-01T00:32:54;4.32;;;1.98;;
42586;SDS011;28216;53.362;-6.288;2023-03-01T00:35:57;4.50;;;1.67;;
42586;SDS011;28216;53.362;-6.288;2023-03-01T00:41:38;3.60;;;1.00;;
42586;SDS011;28216;53.362;-6.288;2023-03-01T00:44:32;3.97;;;1.15;;
42586;SDS011;28216;53.362;-6.288;2023-03-01T00:47:01;2.50;;;1.00;;
42586;SDS011;28216;53.362;-6.288;2023-03-01T00:49:45;3.75;;;1.10;;
42586;SDS011;28216;53.362;-6.288;2023-03-01T00:52:18;6.00;;;0.82;;
42586;SDS011;28216;53.362;-6.288;2023-03-01T00:55:03;2.53;;;1.00;;
42586;SDS011;28216;53.362;-6.288;2023-03-01T01:00:58;2.20;;;0.80;;
42586;SDS011;28216;53.362;-6.288;2023-03-01T01:06:19;1.10;;;0.60;;
42586;SDS011;28216;53.362;-6.288;2023-03-01T01:12:26;1.48;;;0.80;;
42586;SDS011;28216;53.362;-6.288;2023-03-01T01:15:05;2.40;;;0.65;;
42586;SDS011;28216;53.362;-6.288;2023-03-01T01:17:49;3.10;;;0.77;;
42586;SDS011;28216;53.362;-6.288;2023-03-01T01:20:39;4.72;;;0.70;;
42586;SDS011;28216;53.362;-6.288;2023-03-01T01:23:35;3.17;;;0.73;;
42586;SDS011;28216;53.362;-6.288;2023-03-01T01:26:30;1.48;;;0.85;;
42586;SDS011;28216;53.362;-6.288;2023-03-01T01:29:18;2.70;;;0.90;;
42586;SDS011;28216;53.362;-6.288;2023-03-01T01:32:16;2.17;;;0.88;;
42586;SDS011;28216;53.362;-6.288;2023-03-01T03:29:30;3.45;;;0.60;;
42586;SDS011;28216;53.362;-6.288;2023-03-01T03:42:34;4.43;;;0.98;;
42586;SDS011;28216;53.362;-6.288;2023-03-01T03:45:05;4.03;;;0.75;;
42586;SDS011;28216;53.362;-6.288;2023-03-01T03:47:42;2.20;;;0.60;;
42586;SDS011;28216;53.362;-6.288;2023-03-01T03:50:08;2.38;;;0.80;;
42586;SDS011;28216;53.362;-6.288;2023-03-01T03:52:37;1.50;;;0.70;;
42586;SDS011;28216;53.362;-6.288;2023-03-01T03:55:04;0.60;;;0.60;;
42586;SDS011;28216;53.362;-6.288;2023-03-01T03:57:34;3.95;;;0.90;;
42586;SDS011;28216;53.362;-6.288;2023-03-01T04:00:11;1.38;;;0.65;;
42586;SDS011;28216;53.362;-6.288;2023-03-01T04:02:40;1.98;;;0.50;;
42586;SDS011;28216;53.362;-6.288;2023-03-01T04:05:06;1.75;;;0.65;;
42586;SDS011;28216;53.362;-6.288;2023-03-01T04:07:37;2.20;;;0.70;;
42586;SDS011;28216;53.362;-6.288;2023-03-01T04:10:07;3.08;;;0.63;;
42586;SDS011;28216;53.362;-6.288;2023-03-01T04:12:35;2.03;;;0.68;;
42586;SDS011;28216;53.362;-6.288;2023-03-01T04:15:01;3.13;;;0.73;;
42586;SDS011;28216;53.362;-6.288;2023-03-01T04:17:38;2.00;;;0.57;;
42586;SDS011;28216;53.362;-6.288;2023-03-01T04:20:11;1.55;;;0.52;;
42586;SDS011;28216;53.362;-6.288;2023-03-01T04:22:42;1.45;;;0.73;;
42586;SDS011;28216;53.362;-6.288;2023-03-01T04:25:08;1.25;;;0.63;;
42586;SDS011;28216;53.362;-6.288;2023-03-01T04:27:34;2.55;;;0.70;;
42586;SDS011;28216;53.362;-6.288;2023-03-01T04:30:01;1.63;;;0.60;;
42586;SDS011;28216;53.362;-6.288;2023-03-01T04:32:30;1.25;;;0.57;;
42586;SDS011;28216;53.362;-6.288;2023-03-01T04:34:55;1.63;;;0.63;;
42586;SDS011;28216;53.362;-6.288;2023-03-01T04:37:23;2.40;;;0.60;;
42586;SDS011;28216;53.362;-6.288;2023-03-01T04:39:50;1.85;;;0.50;;
42586;SDS011;28216;53.362;-6.288;2023-03-01T04:42:15;1.27;;;0.45;;
42586;SDS011;28216;53.362;-6.288;2023-03-01T04:44:45;3.10;;;0.60;;
42586;SDS011;28216;53.362;-6.288;2023-03-01T04:47:11;4.47;;;0.70;;
42586;SDS011;28216;53.362;-6.288;2023-03-01T04:49:36;1.02;;;0.50;;
42586;SDS011;28216;53.362;-6.288;2023-03-01T04:52:04;0.82;;;0.52;;
42586;SDS011;28216;53.362;-6.288;2023-03-01T04:54:33;3.75;;;0.70;;
42586;SDS011;28216;53.362;-6.288;2023-03-01T06:13:09;3.60;;;0.88;;
42586;SDS011;28216;53.362;-6.288;2023-03-01T06:33:53;3.40;;;0.80;;
42586;SDS011;28216;53.362;-6.288;2023-03-01T06:36:19;3.33;;;0.65;;
42586;SDS011;28216;53.362;-6.288;2023-03-01T06:42:09;2.20;;;0.93;;
42586;SDS011;28216;53.362;-6.288;2023-03-01T06:44:37;3.17;;;0.70;;
42586;SDS011;28216;53.362;-6.288;2023-03-01T07:09:09;4.78;;;0.75;;
42586;SDS011;28216;53.362;-6.288;2023-03-01T07:12:11;3.45;;;0.95;;
42586;SDS011;28216;53.362;-6.288;2023-03-01T07:14:39;4.65;;;1.23;;
42586;SDS011;28216;53.362;-6.288;2023-03-01T07:20:33;3.97;;;1.15;;
42586;SDS011;28216;53.362;-6.288;2023-03-01T07:23:00;3.80;;;1.00;;
42586;SDS011;28216;53.362;-6.288;2023-03-01T07:25:25;2.55;;;0.90;;
42586;SDS011;28216;53.362;-6.288;2023-03-01T07:27:51;3.97;;;0.65;;
42586;SDS011;28216;53.362;-6.288;2023-03-01T07:30:21;6.45;;;1.10;;
42586;SDS011;28216;53.362;-6.288;2023-03-01T07:32:46;4.85;;;0.90;;
42586;SDS011;28216;53.362;-6.288;2023-03-01T07:35:15;5.32;;;1.13;;
42586;SDS011;28216;53.362;-6.288;2023-03-01T07:37:41;2.67;;;0.80;;
42586;SDS011;28216;53.362;-6.288;2023-03-01T07:40:06;4.22;;;0.80;;
42586;SDS011;28216;53.362;-6.288;2023-03-01T07:42:46;3.92;;;1.05;;
42586;SDS011;28216;53.362;-6.288;2023-03-01T07:45:19;2.47;;;0.80;;
42586;SDS011;28216;53.362;-6.288;2023-03-01T07:47:45;2.80;;;0.68;;
42586;SDS011;28216;53.362;-6.288;2023-03-01T07:50:10;4.63;;;0.82;;
42586;SDS011;28216;53.362;-6.288;2023-03-01T07:52:36;3.60;;;1.00;;
42586;SDS011;28216;53.362;-6.288;2023-03-01T07:55:01;3.90;;;0.82;;
42586;SDS011;28216;53.362;-6.288;2023-03-01T07:57:27;3.75;;;0.85;;
42586;SDS011;28216;53.362;-6.288;2023-03-01T07:59:52;2.72;;;0.90;;
42586;SDS011;28216;53.362;-6.288;2023-03-01T08:02:23;4.72;;;1.10;;
42586;SDS011;28216;53.362;-6.288;2023-03-01T14:02:23;3.65;;;2.10;;
42586;SDS011;28216;53.362;-6.288;2023-03-01T14:29:56;2.65;;;0.90;;
42586;SDS011;28216;53.362;-6.288;2023-03-01T14:32:25;1.92;;;1.27;;
42586;SDS011;28216;53.362;-6.288;2023-03-01T14:34:59;3.53;;;1.05;;
42586;SDS011;28216;53.362;-6.288;2023-03-01T14:51:42;1.52;;;0.80;;
42586;SDS011;28216;53.362;-6.288;2023-03-01T15:31:23;11.15;;;5.45;;
42586;SDS011;28216;53.362;-6.288;2023-03-01T15:33:51;15.77;;;9.27;;
42586;SDS011;28216;53.362;-6.288;2023-03-01T15:43:44;7.82;;;3.95;;
42586;SDS011;28216;53.362;-6.288;2023-03-01T15:49:50;22.58;;;13.10;;
42586;SDS011;28216;53.362;-6.288;2023-03-01T15:58:04;9.35;;;6.60;;
42586;SDS011;28216;53.362;-6.288;2023-03-01T16:00:32;5.35;;;2.65;;
42586;SDS011;28216;53.362;-6.288;2023-03-01T16:03:01;4.53;;;2.38;;
42586;SDS011;28216;53.362;-6.288;2023-03-01T16:08:26;4.80;;;2.38;;
42586;SDS011;28216;53.362;-6.288;2023-03-01T16:10:52;3.22;;;1.42;;
42586;SDS011;28216;53.362;-6.288;2023-03-01T16:24:13;3.25;;;1.48;;
42586;SDS011;28216;53.362;-6.288;2023-03-01T16:39:38;5.63;;;1.17;;
42586;SDS011;28216;53.362;-6.288;2023-03-01T16:42:06;3.65;;;1.23;;
42586;SDS011;28216;53.362;-6.288;2023-03-01T16:44:42;3.90;;;1.02;;
42586;SDS011;28216;53.362;-6.288;2023-03-01T16:47:10;2.08;;;1.52;;
42586;SDS011;28216;53.362;-6.288;2023-03-01T16:49:35;4.65;;;1.60;;
42586;SDS011;28216;53.362;-6.288;2023-03-01T16:52:01;7.63;;;4.47;;
42586;SDS011;28216;53.362;-6.288;2023-03-01T16:54:26;4.22;;;2.00;;
42586;SDS011;28216;53.362;-6.288;2023-03-01T16:57:08;3.97;;;1.30;;
42586;SDS011;28216;53.362;-6.288;2023-03-01T16:59:34;6.70;;;2.50;;
42586;SDS011;28216;53.362;-6.288;2023-03-01T17:02:03;4.30;;;1.38;;
42586;SDS011;28216;53.362;-6.288;2023-03-01T17:11:11;3.42;;;1.33;;
42586;SDS011;28216;53.362;-6.288;2023-03-01T17:13:39;3.10;;;1.65;;
42586;SDS011;28216;53.362;-6.288;2023-03-01T17:16:09;3.75;;;1.77;;
42586;SDS011;28216;53.362;-6.288;2023-03-01T17:29:42;11.25;;;6.00;;
42586;SDS011;28216;53.362;-6.288;2023-03-01T17:32:08;3.72;;;1.70;;
42586;SDS011;28216;53.362;-6.288;2023-03-01T17:34:36;5.43;;;1.77;;
42586;SDS011;28216;53.362;-6.288;2023-03-01T17:37:16;7.75;;;2.58;;
42586;SDS011;28216;53.362;-6.288;2023-03-01T17:42:33;5.20;;;1.50;;
42586;SDS011;28216;53.362;-6.288;2023-03-01T17:45:03;2.85;;;1.23;;
42586;SDS011;28216;53.362;-6.288;2023-03-01T18:12:17;6.43;;;3.00;;
42586;SDS011;28216;53.362;-6.288;2023-03-01T18:14:50;5.60;;;2.50;;
42586;SDS011;28216;53.362;-6.288;2023-03-01T18:20:43;9.45;;;3.08;;
42586;SDS011;28216;53.362;-6.288;2023-03-01T18:30:30;7.50;;;3.53;;
42586;SDS011;28216;53.362;-6.288;2023-03-01T18:33:25;4.40;;;2.22;;
42586;SDS011;28216;53.362;-6.288;2023-03-01T18:39:23;5.07;;;2.00;;
42586;SDS011;28216;53.362;-6.288;2023-03-01T18:41:57;4.63;;;2.33;;
42586;SDS011;28216;53.362;-6.288;2023-03-01T18:44:49;6.22;;;2.65;;
42586;SDS011;28216;53.362;-6.288;2023-03-01T19:12:22;4.20;;;2.28;;
42586;SDS011;28216;53.362;-6.288;2023-03-01T19:14:58;5.82;;;3.08;;
42586;SDS011;28216;53.362;-6.288;2023-03-01T19:17:24;9.20;;;3.10;;
42586;SDS011;28216;53.362;-6.288;2023-03-01T19:19:54;48.30;;;18.75;;
42586;SDS011;28216;53.362;-6.288;2023-03-01T19:22:23;23.42;;;10.38;;
42586;SDS011;28216;53.362;-6.288;2023-03-01T19:24:49;14.50;;;5.60;;
42586;SDS011;28216;53.362;-6.288;2023-03-01T19:27:19;16.15;;;5.65;;
42586;SDS011;28216;53.362;-6.288;2023-03-01T19:29:52;7.70;;;3.10;;
42586;SDS011;28216;53.362;-6.288;2023-03-01T19:32:19;17.00;;;5.30;;
42586;SDS011;28216;53.362;-6.288;2023-03-01T19:34:45;11.45;;;4.45;;
42586;SDS011;28216;53.362;-6.288;2023-03-01T19:37:13;9.00;;;3.45;;
42586;SDS011;28216;53.362;-6.288;2023-03-01T19:39:40;13.07;;;5.20;;
42586;SDS011;28216;53.362;-6.288;2023-03-01T19:44:35;11.07;;;3.75;;
42586;SDS011;28216;53.362;-6.288;2023-03-01T19:47:02;9.35;;;3.55;;
42586;SDS011;28216;53.362;-6.288;2023-03-01T19:49:27;6.85;;;3.42;;
42586;SDS011;28216;53.362;-6.288;2023-03-01T19:51:56;10.27;;;4.32;;
42586;SDS011;28216;53.362;-6.288;2023-03-01T19:54:22;11.20;;;3.72;;
42586;SDS011;28216;53.362;-6.288;2023-03-01T19:56:48;14.88;;;5.30;;
42586;SDS011;28216;53.362;-6.288;2023-03-01T19:59:19;9.35;;;4.22;;
42586;SDS011;28216;53.362;-6.288;2023-03-01T20:01:52;10.65;;;4.32;;
42586;SDS011;28216;53.362;-6.288;2023-03-01T20:04:27;6.72;;;3.67;;
42586;SDS011;28216;53.362;-6.288;2023-03-01T20:06:55;6.63;;;2.70;;
42586;SDS011;28216;53.362;-6.288;2023-03-01T20:09:21;10.88;;;5.30;;
42586;SDS011;28216;53.362;-6.288;2023-03-01T20:11:46;9.50;;;4.22;;
42586;SDS011;28216;53.362;-6.288;2023-03-01T20:14:12;16.90;;;7.85;;
42586;SDS011;28216;53.362;-6.288;2023-03-01T20:16:38;9.57;;;2.78;;
42586;SDS011;28216;53.362;-6.288;2023-03-01T20:19:06;9.88;;;4.47;;
42586;SDS011;28216;53.362;-6.288;2023-03-01T20:21:32;13.38;;;7.10;;
42586;SDS011;28216;53.362;-6.288;2023-03-01T20:24:19;16.70;;;7.70;;
42586;SDS011;28216;53.362;-6.288;2023-03-01T20:26:46;5.70;;;1.88;;
42586;SDS011;28216;53.362;-6.288;2023-03-01T20:29:16;11.15;;;4.75;;
42586;SDS011;28216;53.362;-6.288;2023-03-01T20:31:45;10.75;;;6.43;;
42586;SDS011;28216;53.362;-6.288;2023-03-01T20:34:11;8.10;;;4.07;;
42586;SDS011;28216;53.362;-6.288;2023-03-01T20:36:36;16.10;;;9.35;;
42586;SDS011;28216;53.362;-6.288;2023-03-01T20:39:03;9.80;;;5.30;;
42586;SDS011;28216;53.362;-6.288;2023-03-01T20:41:28;9.50;;;5.03;;
42586;SDS011;28216;53.362;-6.288;2023-03-01T20:43:54;11.30;;;4.75;;
42586;SDS011;28216;53.362;-6.288;2023-03-01T20:46:21;10.30;;;5.43;;
42586;SDS011;28216;53.362;-6.288;2023-03-01T20:48:49;5.05;;;2.78;;
42586;SDS011;28216;53.362;-6.288;2023-03-01T20:51:18;6.82;;;3.22;;
42586;SDS011;28216;53.362;-6.288;2023-03-01T20:53:46;9.70;;;3.70;;
42586;SDS011;28216;53.362;-6.288;2023-03-01T20:56:14;7.03;;;2.65;;
42586;SDS011;28216;53.362;-6.288;2023-03-01T20:58:41;6.68;;;2.05;;
42586;SDS011;28216;53.362;-6.288;2023-03-01T21:01:08;9.15;;;2.85;;
42586;SDS011;28216;53.362;-6.288;2023-03-01T21:03:38;7.57;;;2.35;;
42586;SDS011;28216;53.362;-6.288;2023-03-01T21:06:12;11.18;;;2.75;;
42586;SDS011;28216;53.362;-6.288;2023-03-01T21:08:38;10.48;;;3.65;;
42586;SDS011;28216;53.362;-6.288;2023-03-01T21:11:04;5.82;;;1.90;;
42586;SDS011;28216;53.362;-6.288;2023-03-01T21:14:13;5.10;;;2.47;;
42586;SDS011;28216;53.362;-6.288;2023-03-01T21:16:38;6.88;;;2.72;;
42586;SDS011;28216;53.362;-6.288;2023-03-01T21:19:04;5.85;;;2.00;;
42586;SDS011;28216;53.362;-6.288;2023-03-01T21:21:29;4.68;;;2.40;;
42586;SDS011;28216;53.362;-6.288;2023-03-01T21:23:58;8.18;;;4.20;;
42586;SDS011;28216;53.362;-6.288;2023-03-01T21:26:26;18.70;;;10.38;;
42586;SDS011;28216;53.362;-6.288;2023-03-01T21:28:56;41.95;;;27.67;;
42586;SDS011;28216;53.362;-6.288;2023-03-01T21:31:26;32.42;;;21.05;;
42586;SDS011;28216;53.362;-6.288;2023-03-01T21:33:54;25.20;;;15.43;;
42586;SDS011;28216;53.362;-6.288;2023-03-01T21:36:22;17.02;;;12.13;;
42586;SDS011;28216;53.362;-6.288;2023-03-01T21:38:49;9.63;;;5.25;;
42586;SDS011;28216;53.362;-6.288;2023-03-01T21:41:16;10.73;;;3.42;;
42586;SDS011;28216;53.362;-6.288;2023-03-01T21:43:44;7.38;;;2.80;;
42586;SDS011;28216;53.362;-6.288;2023-03-01T21:46:12;6.50;;;1.80;;
42586;SDS011;28216;53.362;-6.288;2023-03-01T21:48:40;4.53;;;2.00;;
42586;SDS011;28216;53.362;-6.288;2023-03-01T21:51:10;5.05;;;1.65;;
42586;SDS011;28216;53.362;-6.288;2023-03-01T21:53:55;7.82;;;1.83;;
42586;SDS011;28216;53.362;-6.288;2023-03-01T21:56:35;3.42;;;1.67;;
42586;SDS011;28216;53.362;-6.288;2023-03-01T22:02:22;3.90;;;1.50;;
42586;SDS011;28216;53.362;-6.288;2023-03-01T22:08:56;3.97;;;1.33;;
42586;SDS011;28216;53.362;-6.288;2023-03-01T22:11:27;3.00;;;1.20;;
42586;SDS011;28216;53.362;-6.288;2023-03-01T22:14:17;3.72;;;1.67;;
42586;SDS011;28216;53.362;-6.288;2023-03-01T22:16:43;6.70;;;1.50;;
42586;SDS011;28216;53.362;-6.288;2023-03-01T22:19:09;4.65;;;1.35;;
42586;SDS011;28216;53.362;-6.288;2023-03-01T22:21:37;4.45;;;1.45;;
42586;SDS011;28216;53.362;-6.288;2023-03-01T22:24:04;3.50;;;1.45;;
42586;SDS011;28216;53.362;-6.288;2023-03-01T22:26:32;6.18;;;1.67;;
42586;SDS011;28216;53.362;-6.288;2023-03-01T22:29:03;2.33;;;1.10;;
42586;SDS011;28216;53.362;-6.288;2023-03-01T22:31:31;3.38;;;1.40;;
42586;SDS011;28216;53.362;-6.288;2023-03-01T22:33:56;4.72;;;1.13;;
42586;SDS011;28216;53.362;-6.288;2023-03-01T22:36:23;7.03;;;1.20;;
42586;SDS011;28216;53.362;-6.288;2023-03-01T22:39:00;4.07;;;1.10;;
42586;SDS011;28216;53.362;-6.288;2023-03-01T22:41:56;5.05;;;1.33;;
42586;SDS011;28216;53.362;-6.288;2023-03-01T22:44:27;4.22;;;1.40;;
42586;SDS011;28216;53.362;-6.288;2023-03-01T22:49:47;3.92;;;1.20;;
42586;SDS011;28216;53.362;-6.288;2023-03-01T22:52:21;3.13;;;1.00;;
42586;SDS011;28216;53.362;-6.288;2023-03-01T22:54:59;5.00;;;1.50;;
42586;SDS011;28216;53.362;-6.288;2023-03-01T22:57:31;6.80;;;1.30;;
42586;SDS011;28216;53.362;-6.288;2023-03-01T22:59:57;5.38;;;1.30;;
42586;SDS011;28216;53.362;-6.288;2023-03-01T23:02:25;4.90;;;1.30;;
42586;SDS011;28216;53.362;-6.288;2023-03-01T23:05:03;5.40;;;1.25;;
42586;SDS011;28216;53.362;-6.288;2023-03-01T23:07:31;5.80;;;1.23;;
42586;SDS011;28216;53.362;-6.288;2023-03-01T23:09:57;5.70;;;1.30;;
42586;SDS011;28216;53.362;-6.288;2023-03-01T23:12:27;2.50;;;1.00;;
42586;SDS011;28216;53.362;-6.288;2023-03-01T23:14:53;5.07;;;1.27;;
42586;SDS011;28216;53.362;-6.288;2023-03-01T23:17:19;7.97;;;1.20;;
42586;SDS011;28216;53.362;-6.288;2023-03-01T23:19:44;6.78;;;1.38;;
42586;SDS011;28216;53.362;-6.288;2023-03-01T23:22:10;4.18;;;1.58;;
42586;SDS011;28216;53.362;-6.288;2023-03-01T23:24:36;5.68;;;1.00;;
42586;SDS011;28216;53.362;-6.288;2023-03-01T23:27:04;4.70;;;1.10;;
42586;SDS011;28216;53.362;-6.288;2023-03-01T23:29:30;9.55;;;5.20;;
42586;SDS011;28216;53.362;-6.288;2023-03-01T23:31:57;26.48;;;15.18;;
42586;SDS011;28216;53.362;-6.288;2023-03-01T23:34:23;38.72;;;22.48;;
42586;SDS011;28216;53.362;-6.288;2023-03-01T23:36:53;36.60;;;24.25;;
42586;SDS011;28216;53.362;-6.288;2023-03-01T23:39:21;13.13;;;7.78;;
42586;SDS011;28216;53.362;-6.288;2023-03-01T23:41:47;10.73;;;6.15;;
42586;SDS011;28216;53.362;-6.288;2023-03-01T23:44:14;39.03;;;24.45;;
42586;SDS011;28216;53.362;-6.288;2023-03-01T23:46:44;30.17;;;17.40;;
42586;SDS011;28216;53.362;-6.288;2023-03-01T23:49:11;24.15;;;14.52;;
42586;SDS011;28216;53.362;-6.288;2023-03-01T23:51:39;24.67;;;14.02;;
42586;SDS011;28216;53.362;-6.288;2023-03-01T23:54:06;13.98;;;7.05;;
42586;SDS011;28216;53.362;-6.288;2023-03-01T23:56:34;9.77;;;5.20;;
42586;SDS011;28216;53.362;-6.288;2023-03-01T23:59:05;11.75;;;5.68;;
